Ohshima Kazumaru — JD2908 — position and weather

sailwx.info

Track history (hours):
 
Tides and Currents Weather Stations Pressure Air Temp Water Temp Dewpoint Dewpoint Depression Visibility Wind Speed Wind Dir Waves Ship Positions

Ohshima Kazumaru

Last reported at 2015-Apr-27 14:32 UTC. Time now 2015-Apr-27 22:18 UTC.
Position N 35°04' E 139°35'.

Length 69 m; draft 4 m.

Type: Cargo ship. MMSI: 431000925.

Date/timePositionNaut miles runAvg speedWind from/ knotsBaromVisibWave heightAir tempDewpointWater temp
2015-Apr-27 14:32N 35°04' E 139°35'1211.8
2015-Apr-27 13:33N 35°12' E 139°46'1111.4
2015-Apr-27 12:33N 35°23' E 139°42'1211.9
2015-Apr-27 11:33N 35°33' E 139°51'7 7.0
2015-Apr-27 10:33N 35°38' E 139°46'0 0.0
2015-Apr-27 09:33N 35°38' E 139°46'0 0.0
2015-Apr-27 08:33N 35°38' E 139°46'0 0.0
2015-Apr-27 07:33N 35°38' E 139°46'0 0.0
2015-Apr-27 06:33N 35°38' E 139°46'0 0.0
2015-Apr-27 05:33N 35°38' E 139°46'0 0.0
2015-Apr-27 04:33N 35°38' E 139°46'0 0.0
2015-Apr-27 03:33N 35°38' E 139°46'0 0.0
2015-Apr-27 02:33N 35°38' E 139°46'0 0.0
2015-Apr-27 01:33N 35°38' E 139°46'0 0.0
2015-Apr-27 00:33N 35°38' E 139°46'0 0.0
2015-Apr-26 23:33N 35°38' E 139°46'0 0.0
2015-Apr-26 22:33N 35°38' E 139°46'9 9.4
2015-Apr-26 21:33N 35°31' E 139°52'1211.7
2015-Apr-26 20:33N 35°21' E 139°45'1110.9
2015-Apr-26 19:33N 35°10' E 139°46'1211.8
2015-Apr-26 18:33N 35°01' E 139°37'  
2015-Apr-24 11:26N 34°07' E 134°47'23710.3
2015-Apr-23 12:20N 34°59' E 139°28'911.8
2015-Apr-23 11:32N 35°04' E 139°37'1211.9
2015-Apr-23 10:33N 35°13' E 139°46'1111.2
2015-Apr-23 09:33N 35°24' E 139°43'1211.6
2015-Apr-23 08:33N 35°32' E 139°53'10 9.9
2015-Apr-23 07:33N 35°41' E 139°58'0 0.0
2015-Apr-23 06:33N 35°41' E 139°58'0 0.0
2015-Apr-23 05:33N 35°41' E 139°58'0 0.0
2015-Apr-23 04:33N 35°41' E 139°58'0 0.0
2015-Apr-23 03:33N 35°41' E 139°58'0 0.0
2015-Apr-23 02:33N 35°41' E 139°58'0 0.1
2015-Apr-23 01:33N 35°41' E 139°58'0 0.0
2015-Apr-23 00:33N 35°41' E 139°58'0 0.0
2015-Apr-22 23:33N 35°41' E 139°58'0 0.0
2015-Apr-22 22:33N 35°41' E 139°58'4 4.3
2015-Apr-22 21:33N 35°37' E 139°58'0 0.0
2015-Apr-22 20:33N 35°37' E 139°58'6 6.0
2015-Apr-22 19:33N 35°32' E 139°54'1211.7
2015-Apr-22 18:33N 35°22' E 139°45'1111.1
2015-Apr-22 17:33N 35°11' E 139°47'1111.1
2015-Apr-22 16:33N 35°02' E 139°38'1211.6
2015-Apr-22 15:33N 34°55' E 139°27'  
2015-Apr-19 10:30N 34°07' E 134°46'243 9.7
2015-Apr-18 09:25N 35°03' E 139°34'910.1
2015-Apr-18 08:33N 35°08' E 139°42'9 9.2
2015-Apr-18 07:33N 35°17' E 139°45'9 9.3
2015-Apr-18 06:33N 35°27' E 139°45'5 5.1
2015-Apr-18 05:33N 35°32' E 139°47'0 0.0
2015-Apr-18 04:33N 35°32' E 139°47'0 0.1
2015-Apr-18 03:33N 35°31' E 139°47'0 0.1
2015-Apr-18 02:33N 35°32' E 139°47'0 0.0
2015-Apr-18 01:33N 35°32' E 139°47'0 0.0
2015-Apr-18 00:33N 35°32' E 139°47'0 0.0
2015-Apr-17 23:33N 35°32' E 139°47'0 0.1
2015-Apr-17 22:33N 35°32' E 139°47'2 2.0
2015-Apr-17 21:33N 35°31' E 139°49'0 0.0
2015-Apr-17 20:33N 35°31' E 139°49'0 0.0
2015-Apr-17 19:33N 35°31' E 139°49'0 0.0
2015-Apr-17 18:33N 35°31' E 139°49'0 0.0
2015-Apr-17 17:33N 35°31' E 139°49'0 0.0
2015-Apr-17 16:33N 35°31' E 139°49'0 0.0
2015-Apr-17 15:33N 35°31' E 139°49'0 0.0
2015-Apr-17 14:33N 35°31' E 139°49'  
Track history (hours):
 
Tides and Currents Weather Stations Pressure Air Temp Water Temp Dewpoint Dewpoint Depression Visibility Wind Speed Wind Dir Waves Ship Positions

Ohshima Kazumaru

Last reported at 2015-Apr-27 14:32 UTC. Time now 2015-Apr-27 22:18 UTC.
Position N 35°04' E 139°35'.

Length 69 m; draft 4 m.

Type: Cargo ship. MMSI: 431000925.

Date/timePositionNaut miles runAvg speedWind from/ knotsBaromVisibWave heightAir tempDewpointWater temp
2015-Apr-27 14:32N 35°04' E 139°35'1211.8
2015-Apr-27 13:33N 35°12' E 139°46'1111.4
2015-Apr-27 12:33N 35°23' E 139°42'1211.9
2015-Apr-27 11:33N 35°33' E 139°51'7 7.0
2015-Apr-27 10:33N 35°38' E 139°46'0 0.0
2015-Apr-27 09:33N 35°38' E 139°46'0 0.0
2015-Apr-27 08:33N 35°38' E 139°46'0 0.0
2015-Apr-27 07:33N 35°38' E 139°46'0 0.0
2015-Apr-27 06:33N 35°38' E 139°46'0 0.0
2015-Apr-27 05:33N 35°38' E 139°46'0 0.0
2015-Apr-27 04:33N 35°38' E 139°46'0 0.0
2015-Apr-27 03:33N 35°38' E 139°46'0 0.0
2015-Apr-27 02:33N 35°38' E 139°46'0 0.0
2015-Apr-27 01:33N 35°38' E 139°46'0 0.0
2015-Apr-27 00:33N 35°38' E 139°46'0 0.0
2015-Apr-26 23:33N 35°38' E 139°46'0 0.0
2015-Apr-26 22:33N 35°38' E 139°46'9 9.4
2015-Apr-26 21:33N 35°31' E 139°52'1211.7
2015-Apr-26 20:33N 35°21' E 139°45'1110.9
2015-Apr-26 19:33N 35°10' E 139°46'1211.8
2015-Apr-26 18:33N 35°01' E 139°37'  
2015-Apr-24 11:26N 34°07' E 134°47'23710.3
2015-Apr-23 12:20N 34°59' E 139°28'911.8
2015-Apr-23 11:32N 35°04' E 139°37'1211.9
2015-Apr-23 10:33N 35°13' E 139°46'1111.2
2015-Apr-23 09:33N 35°24' E 139°43'1211.6
2015-Apr-23 08:33N 35°32' E 139°53'10 9.9
2015-Apr-23 07:33N 35°41' E 139°58'0 0.0
2015-Apr-23 06:33N 35°41' E 139°58'0 0.0
2015-Apr-23 05:33N 35°41' E 139°58'0 0.0
2015-Apr-23 04:33N 35°41' E 139°58'0 0.0
2015-Apr-23 03:33N 35°41' E 139°58'0 0.0
2015-Apr-23 02:33N 35°41' E 139°58'0 0.1
2015-Apr-23 01:33N 35°41' E 139°58'0 0.0
2015-Apr-23 00:33N 35°41' E 139°58'0 0.0
2015-Apr-22 23:33N 35°41' E 139°58'0 0.0
2015-Apr-22 22:33N 35°41' E 139°58'4 4.3
2015-Apr-22 21:33N 35°37' E 139°58'0 0.0
2015-Apr-22 20:33N 35°37' E 139°58'6 6.0
2015-Apr-22 19:33N 35°32' E 139°54'1211.7
2015-Apr-22 18:33N 35°22' E 139°45'1111.1
2015-Apr-22 17:33N 35°11' E 139°47'1111.1
2015-Apr-22 16:33N 35°02' E 139°38'1211.6
2015-Apr-22 15:33N 34°55' E 139°27'  
2015-Apr-19 10:30N 34°07' E 134°46'243 9.7
2015-Apr-18 09:25N 35°03' E 139°34'910.1
2015-Apr-18 08:33N 35°08' E 139°42'9 9.2
2015-Apr-18 07:33N 35°17' E 139°45'9 9.3
2015-Apr-18 06:33N 35°27' E 139°45'5 5.1
2015-Apr-18 05:33N 35°32' E 139°47'0 0.0
2015-Apr-18 04:33N 35°32' E 139°47'0 0.1
2015-Apr-18 03:33N 35°31' E 139°47'0 0.1
2015-Apr-18 02:33N 35°32' E 139°47'0 0.0
2015-Apr-18 01:33N 35°32' E 139°47'0 0.0
2015-Apr-18 00:33N 35°32' E 139°47'0 0.0
2015-Apr-17 23:33N 35°32' E 139°47'0 0.1
2015-Apr-17 22:33N 35°32' E 139°47'2 2.0
2015-Apr-17 21:33N 35°31' E 139°49'0 0.0
2015-Apr-17 20:33N 35°31' E 139°49'0 0.0
2015-Apr-17 19:33N 35°31' E 139°49'0 0.0
2015-Apr-17 18:33N 35°31' E 139°49'0 0.0
2015-Apr-17 17:33N 35°31' E 139°49'0 0.0
2015-Apr-17 16:33N 35°31' E 139°49'0 0.0
2015-Apr-17 15:33N 35°31' E 139°49'0 0.0
2015-Apr-17 14:33N 35°31' E 139°49'  

Dump ship's entire track history